Latest Weather Observations for Tunnack

IDT60801

Issued at 10:02 am EDT Friday 24 February 2017 (issued every 30 minutes, with the page automatically refreshed every 10 minutes)

About weather observations | Map of weather stations | Latest weather observations for TAS | Other Formats
Station Details ID: 094195 Name: TUNNACK FIRE STATION Lat: -42.45 Lon: 147.46 Height: 461.5 m
Data from the previous 72 hours. | See also: Recent months at Tunnack
Date/Time
EDT
Temp
°C
App
Temp
°C
Dew
Point
°C
Rel
Hum
%
Delta-T
°C
Wind Press
QNH
hPa
Press
MSL
hPa
Rain since
9am
mm
Dir  Spd
km/h
Gust
km/h
Spd
kts
Gust
kts
24/10:00am 12.4 8.1 5.1 61 3.4 WSW 17 24 9 13 1021.7 1020.8 -
24/09:30am 11.9 8.3 5.1 63 3.2 W 13 20 7 11 1021.4 1020.6 0.0
24/09:00am 11.4 7.4 5.1 65 3.0 WSW 15 22 8 12 1021.2 1020.4 0.0
24/08:30am 11.4 8.3 5.7 68 2.7 W 11 15 6 8 1020.7 1019.9 0.0
24/08:00am 11.0 8.8 6.2 72 2.3 W 7 13 4 7 1020.6 1019.8 0.0
24/07:30am 10.7 8.2 6.5 75 2.0 W 9 15 5 8 1020.5 1019.7 0.0
24/07:00am 10.6 8.1 6.7 77 1.9 W 9 15 5 8 1020.3 1019.4 0.0
24/06:30am 10.6 7.7 6.7 77 1.9 W 11 17 6 9 1020.1 1019.2 0.0
24/06:00am 10.4 8.4 7.3 81 1.5 W 7 11 4 6 1019.8 1018.9 0.0
24/05:30am 10.5 8.6 7.7 83 1.4 W 7 9 4 5 1019.7 1018.8 0.0
24/05:00am 10.6 9.0 7.8 83 1.4 W 6 7 3 4 1019.5 1018.6 0.0
24/04:30am 10.6 8.8 8.0 84 1.3 WSW 7 11 4 6 1019.5 1018.6 0.0
24/04:00am 10.6 9.9 8.4 86 1.1 WNW 2 7 1 4 1019.5 1018.6 0.0
24/03:30am 10.5 8.9 8.8 89 0.9 SW 7 11 4 6 1019.7 1018.8 0.0
24/03:00am 9.8 7.6 7.7 87 1.0 W 9 13 5 7 1019.5 1018.6 0.0
24/02:30am 10.6 8.5 8.4 86 1.1 W 9 13 5 7 1019.5 1018.6 0.0
24/02:00am 11.5 9.9 8.9 84 1.3 W 7 11 4 6 1019.6 1018.7 0.0
24/01:30am 12.3 10.8 9.0 80 1.7 W 7 13 4 7 1020.0 1019.1 0.0
24/01:00am 12.1 10.7 8.8 80 1.7 WNW 6 9 3 5 1019.9 1019.0 0.0
24/12:30am 12.0 11.4 9.0 82 1.5 W 2 7 1 4 1019.9 1019.0 0.0
24/12:00am 12.0 10.6 8.7 80 1.7 W 6 7 3 4 1019.8 1018.9 0.0
 
Date/Time
EDT
Temp
°C
App
Temp
°C
Dew
Point
°C
Rel
Hum
%
Delta-T
°C
Wind Press
QNH
hPa
Press
MSL
hPa
Rain since
9am
mm
Dir  Spd
km/h
Gust
km/h
Spd
kts
Gust
kts
23/11:30pm 11.8 11.5 8.5 80 1.7 CALM 0 0 0 0 1019.6 1018.7 0.0
23/11:00pm 12.5 12.0 8.0 74 2.3 CALM 0 0 0 0 1019.3 1018.4 0.0
23/10:30pm 13.9 11.8 8.3 69 2.9 WSW 9 11 5 6 1019.1 1018.3 0.0
23/10:00pm 14.8 12.4 8.7 67 3.2 WSW 11 17 6 9 1018.8 1018.0 0.0
23/09:30pm 14.7 12.8 8.9 68 3.0 WSW 9 11 5 6 1018.6 1017.8 0.0
23/09:00pm 15.6 13.6 8.8 64 3.5 WSW 9 13 5 7 1018.0 1017.1 0.0
23/08:30pm 16.7 14.7 8.7 59 4.2 WSW 9 15 5 8 1017.2 1016.3 0.0
23/08:00pm 17.8 14.2 8.4 54 4.9 WSW 17 26 9 14 1016.3 1015.4 0.0
23/07:30pm 19.3 15.7 8.3 49 5.8 WSW 17 24 9 13 1015.9 1015.0 0.0
23/07:00pm 20.4 17.1 8.1 45 6.5 WSW 15 26 8 14 1015.3 1014.4 0.0
23/06:30pm 21.7 18.4 8.2 42 7.2 WSW 15 20 8 11 1014.8 1013.9 0.0
23/06:00pm 22.3 18.8 7.3 38 7.9 W 15 26 8 14 1014.3 1013.4 0.0
23/05:30pm 22.8 17.9 8.5 40 7.8 WSW 24 33 13 18 1014.0 1013.1 0.0
23/05:00pm 23.3 18.7 8.2 38 8.2 W 22 35 12 19 1013.7 1012.8 0.0
23/04:30pm 24.0 20.0 9.2 39 8.2 W 20 32 11 17 1013.3 1012.4 0.0
23/04:00pm 24.5 20.4 8.5 36 8.8 W 20 35 11 19 1013.1 1012.2 0.0
23/03:30pm 24.1 19.6 8.5 37 8.5 WSW 22 35 12 19 1012.8 1011.8 0.0
23/03:00pm 24.0 19.8 8.4 37 8.5 W 20 32 11 17 1012.8 1011.8 0.0
23/02:30pm 25.3 19.4 9.2 36 9.0 WNW 30 41 16 22 1012.7 1011.7 0.0
23/02:00pm 24.5 18.6 8.9 37 8.6 WNW 30 46 16 25 1012.1 1011.2 0.0
23/01:54pm 23.8 18.2 8.6 38 8.3 WNW 28 46 15 25 1012.1 1011.2 0.0
23/01:30pm 24.1 18.6 9.3 39 8.2 WNW 28 43 15 23 1011.7 1010.8 0.0
23/01:14pm 23.7 18.2 9.3 40 8.0 WNW 28 50 15 27 1011.6 1010.7 0.0
23/01:00pm 23.1 18.2 8.4 39 8.0 W 24 39 13 21 1011.9 1011.0 0.0
23/12:30pm 22.2 16.1 8.3 41 7.5 NW 30 39 16 21 1012.1 1011.2 0.0
23/12:00pm 23.4 18.1 8.3 38 8.2 WNW 26 39 14 21 1011.8 1010.9 0.0
23/11:30am 22.4 17.9 8.5 41 7.5 WNW 22 39 12 21 1011.6 1010.7 0.0
23/11:00am 20.6 15.7 8.3 45 6.6 NW 24 37 13 20 1011.3 1010.4 0.0
23/10:30am 19.5 13.4 8.2 48 6.0 WNW 30 39 16 21 1011.2 1010.3 0.0
23/10:00am 18.3 12.1 7.7 50 5.5 WNW 30 39 16 21 1011.1 1010.2 0.0
23/09:30am 18.4 12.6 8.1 51 5.4 WNW 28 43 15 23 1010.9 1009.9 0.0
23/09:15am 17.8 12.0 7.8 52 5.2 NW 28 46 15 25 1010.6 1009.6 0.0
23/09:00am 16.9 14.8 11.2 69 3.2 NNW 13 22 7 12 1010.4 1009.4 0.0
23/08:30am 16.1 12.8 11.7 75 2.4 N 20 30 11 16 1009.9 1009.0 0.0
23/08:00am 14.8 12.4 12.7 87 1.2 NNE 17 24 9 13 1009.6 1008.7 0.0
23/07:30am 13.8 11.6 12.0 89 1.0 N 15 22 8 12 1009.0 1008.0 0.0
23/07:00am 13.8 10.8 11.8 88 1.1 NNW 19 26 10 14 1008.7 1007.7 0.0
23/06:30am 14.3 10.6 11.6 84 1.5 N 22 32 12 17 1008.1 1007.1 0.0
23/06:00am 14.2 10.8 11.4 83 1.5 N 20 28 11 15 1007.9 1006.9 0.0
23/05:30am 14.4 11.1 10.8 79 1.9 N 19 28 10 15 1007.7 1006.8 0.0
23/05:00am 15.5 10.9 10.9 74 2.5 N 26 41 14 22 1007.4 1006.5 0.0
23/04:30am 15.6 10.5 10.6 72 2.7 N 28 39 15 21 1007.9 1006.9 0.0
23/04:00am 15.3 10.7 11.1 76 2.3 NNW 26 33 14 18 1008.3 1007.3 0.0
23/03:30am 15.7 9.8 11.1 74 2.5 N 33 44 18 24 1007.7 1006.8 0.0
23/03:00am 16.8 11.2 10.0 64 3.7 N 30 50 16 27 1007.3 1006.4 0.0
23/02:56am 17.2 11.9 9.9 62 3.9 N 28 50 15 27 1007.4 1006.5 0.0
23/02:53am 17.0 13.2 9.9 63 3.8 NNE 20 41 11 22 1007.4 1006.5 0.0
23/02:30am 15.4 14.2 11.6 78 2.1 NE 9 15 5 8 1008.2 1007.2 0.0
23/02:00am 15.6 14.3 11.4 76 2.3 NNE 9 15 5 8 1008.7 1007.7 0.0
23/01:30am 15.7 14.9 11.7 77 2.2 ENE 7 15 4 8 1008.7 1007.7 0.0
23/01:00am 15.8 15.0 11.8 77 2.2 NE 7 13 4 7 1009.4 1008.5 0.0
23/12:30am 15.0 13.5 11.8 81 1.8 E 11 13 6 7 1010.0 1009.1 0.0
23/12:00am 15.6 14.7 11.4 76 2.3 ENE 7 13 4 7 1010.8 1009.8 0.0
 
Date/Time
EDT
Temp
°C
App
Temp
°C
Dew
Point
°C
Rel
Hum
%
Delta-T
°C
Wind Press
QNH
hPa
Press
MSL
hPa
Rain since
9am
mm
Dir  Spd
km/h
Gust
km/h
Spd
kts
Gust
kts
22/11:30pm 16.4 13.2 11.3 72 2.8 N 19 32 10 17 1011.2 1010.3 0.0
22/11:00pm 16.1 13.0 10.2 68 3.2 N 17 26 9 14 1011.4 1010.5 0.0
22/10:30pm 16.7 13.4 9.6 63 3.8 NNW 17 26 9 14 1012.1 1011.2 0.0
22/10:00pm 16.8 14.8 10.0 64 3.7 N 11 24 6 13 1012.1 1011.2 0.0
22/09:30pm 16.9 13.8 7.3 53 4.9 NNE 13 24 7 13 1012.1 1011.2 0.0
22/09:00pm 16.6 13.8 7.0 53 4.9 NNE 11 17 6 9 1012.2 1011.3 0.0
22/08:30pm 16.5 13.9 7.7 56 4.5 NNE 11 17 6 9 1012.0 1011.1 0.0
22/08:00pm 18.9 14.9 8.3 50 5.6 N 19 28 10 15 1012.0 1011.1 0.0
22/07:30pm 20.0 14.8 8.7 48 6.1 NNW 26 33 14 18 1011.9 1011.0 0.0
22/07:00pm 20.7 14.0 7.3 42 7.0 N 32 43 17 23 1011.2 1010.3 0.0
22/06:30pm 21.9 16.0 7.3 39 7.7 N 28 41 15 22 1011.8 1010.9 0.0
22/06:00pm 21.3 14.6 7.2 40 7.4 N 32 46 17 25 1011.9 1011.0 0.0
22/05:30pm 22.6 16.0 7.6 38 8.0 N 32 54 17 29 1012.0 1011.1 0.0
22/05:13pm 22.6 15.8 6.8 36 8.3 N 32 50 17 27 1012.3 1011.4 0.0
22/05:00pm 22.3 15.3 6.9 37 8.1 N 33 50 18 27 1012.6 1011.6 0.0
22/04:34pm 22.8 16.1 7.4 37 8.2 N 32 50 17 27 1013.0 1012.1 0.0
22/04:30pm 22.8 15.6 7.8 38 8.0 N 35 50 19 27 1013.0 1012.1 0.0
22/04:04pm 22.7 16.0 7.3 37 8.2 N 32 50 17 27 1013.2 1012.3 0.0
22/04:00pm 23.8 17.2 7.8 36 8.6 N 32 48 17 26 1013.3 1012.4 0.0
22/03:35pm 22.4 14.8 7.4 38 8.0 N 37 57 20 31 1013.4 1012.5 0.0
22/03:30pm 21.7 14.5 7.5 40 7.5 N 35 50 19 27 1013.5 1012.6 0.0
22/03:00pm 23.8 17.3 9.0 39 8.1 N 33 48 18 26 1013.9 1013.0 0.0
22/02:42pm 22.1 15.3 7.9 40 7.6 N 33 54 18 29 1014.1 1013.2 0.0
22/02:30pm 21.8 15.1 8.3 42 7.3 N 33 46 18 25 1014.4 1013.5 0.0
22/02:00pm 22.3 16.1 7.7 39 7.8 N 30 44 16 24 1014.8 1013.9 0.0
22/01:47pm 22.0 15.5 6.7 37 8.0 N 30 48 16 26 1015.1 1014.2 0.0
22/01:30pm 20.3 13.9 7.0 42 6.9 N 30 39 16 21 1015.1 1014.2 0.0
22/01:00pm 18.8 11.7 6.6 45 6.2 N 33 43 18 23 1015.4 1014.5 0.0
22/12:30pm 19.8 14.2 7.2 44 6.6 N 26 37 14 20 1015.7 1014.8 0.0
22/12:00pm 19.3 13.5 8.0 48 5.9 N 28 37 15 20 1016.0 1015.1 0.0
22/11:30am 18.1 12.7 8.1 52 5.2 N 26 35 14 19 1016.5 1015.6 0.0
22/11:00am 16.5 10.3 8.0 57 4.4 N 30 41 16 22 1016.8 1016.0 0.0
22/10:30am 15.5 10.0 9.2 66 3.3 N 28 39 15 21 1017.1 1016.2 0.0
22/10:00am 15.3 11.6 10.3 72 2.7 N 20 28 11 15 1017.4 1016.5 0.0
22/09:30am 13.0 8.8 9.8 81 1.7 N 22 33 12 18 1017.7 1016.8 0.0
22/09:00am 11.5 8.5 9.4 87 1.1 N 15 24 8 13 1017.4 1016.5 0.0
22/08:30am 11.2 7.8 9.3 88 1.0 N 17 28 9 15 1017.5 1016.6 0.0
22/08:00am 10.7 5.9 9.0 89 0.9 N 24 37 13 20 1017.5 1016.6 0.0
22/07:30am 10.7 6.3 9.0 89 0.9 N 22 35 12 19 1017.3 1016.4 0.0
22/07:00am 10.5 6.5 8.9 90 0.8 N 20 33 11 18 1017.0 1016.1 0.0
22/06:30am 10.6 6.2 9.0 90 0.8 N 22 39 12 21 1017.1 1016.2 0.0
22/06:00am 10.2 6.8 9.1 93 0.6 NNE 17 24 9 13 1017.3 1016.4 0.0
22/05:30am 9.7 7.0 8.9 95 0.4 NE 13 17 7 9 1017.2 1016.3 0.0
22/05:00am 9.0 6.9 8.1 94 0.4 NE 9 17 5 9 1017.4 1016.5 0.0
22/04:30am 9.2 7.2 8.6 96 0.3 NE 9 13 5 7 1017.8 1016.9 0.0
22/04:00am 9.1 7.0 8.3 95 0.4 NE 9 15 5 8 1018.0 1017.1 0.0
22/03:30am 9.3 7.6 8.5 95 0.4 NE 7 11 4 6 1018.2 1017.3 0.0
22/03:00am 9.2 6.7 8.4 95 0.4 NNE 11 17 6 9 1018.4 1017.5 0.0
22/02:30am 9.6 6.9 8.8 95 0.4 NNE 13 17 7 9 1018.5 1017.7 0.0
22/02:00am 9.6 7.6 8.7 94 0.5 NE 9 15 5 8 1018.5 1017.7 0.0
22/01:30am 10.1 8.2 9.0 93 0.6 NE 9 17 5 9 1018.8 1018.0 0.0
22/01:00am 10.3 8.4 8.9 91 0.7 ENE 9 17 5 9 1019.3 1018.4 0.0
22/12:30am 10.3 8.7 8.7 90 0.8 NE 7 11 4 6 1019.6 1018.7 0.0
22/12:00am 10.5 8.1 8.8 89 0.9 ENE 11 19 6 10 1019.7 1018.8 0.0
 
Date/Time
EDT
Temp
°C
App
Temp
°C
Dew
Point
°C
Rel
Hum
%
Delta-T
°C
Wind Press
QNH
hPa
Press
MSL
hPa
Rain since
9am
mm
Dir  Spd
km/h
Gust
km/h
Spd
kts
Gust
kts
21/11:30pm 10.3 8.2 8.2 87 1.0 ENE 9 13 5 7 1019.9 1019.0 0.0
21/11:00pm 10.5 8.0 8.3 86 1.1 ENE 11 17 6 9 1019.9 1019.0 0.0
21/10:30pm 10.7 8.5 7.9 83 1.4 ENE 9 17 5 9 1019.9 1019.0 0.0
21/10:00pm 10.8 7.8 7.9 82 1.4 ENE 13 19 7 10 1020.1 1019.2 0.0
21/09:30pm 11.1 7.7 7.8 80 1.6 ENE 15 20 8 11 1019.9 1019.0 0.0
21/09:00pm 11.1 7.3 7.6 79 1.7 E 17 24 9 13 1019.6 1018.7 0.0
21/08:30pm 11.6 8.4 6.9 73 2.3 ENE 13 22 7 12 1019.4 1018.5 0.0
21/08:00pm 12.6 8.7 6.9 68 2.8 ENE 17 24 9 13 1018.8 1018.0 0.0
21/07:30pm 14.1 10.9 6.9 62 3.6 NE 13 24 7 13 1018.4 1017.5 0.0
21/07:00pm 17.2 13.9 2.4 37 6.9 SW 9 11 5 6 1017.9 1017.0 0.0
21/06:30pm 18.4 14.8 2.7 35 7.4 WSW 11 19 6 10 1017.7 1016.8 0.0
21/06:00pm 18.9 15.2 2.3 33 7.8 SW 11 17 6 9 1017.8 1016.9 0.0
21/05:30pm 19.4 14.9 1.9 31 8.2 WSW 15 20 8 11 1017.6 1016.7 0.0
21/05:00pm 19.6 14.6 1.1 29 8.5 WSW 17 26 9 14 1017.5 1016.6 0.0
21/04:30pm 19.1 14.3 2.5 33 7.8 WNW 17 22 9 12 1017.4 1016.5 0.0
21/04:00pm 18.7 13.7 1.2 31 8.0 WNW 17 28 9 15 1017.4 1016.5 0.0
21/03:30pm 19.7 15.7 3.0 33 8.0 WSW 13 24 7 13 1017.4 1016.5 0.0
21/03:00pm 19.2 14.3 2.1 32 8.0 W 17 30 9 16 1017.6 1016.7 0.0
21/02:30pm 18.7 13.6 3.3 36 7.4 W 19 28 10 15 1017.9 1017.0 0.0
21/02:00pm 18.1 13.3 2.8 36 7.2 W 17 33 9 18 1017.9 1017.0 0.0
21/01:30pm 17.3 12.6 3.2 39 6.7 WSW 17 26 9 14 1017.7 1016.8 0.0
21/01:00pm 17.2 12.4 4.5 43 6.1 WSW 19 28 10 15 1017.8 1016.9 0.0
21/12:30pm 16.2 11.7 4.3 45 5.7 WSW 17 28 9 15 1017.9 1017.0 0.0
21/12:00pm 15.3 10.8 4.4 48 5.2 W 17 30 9 16 1017.9 1017.0 0.0
21/11:30am 14.5 9.9 5.8 56 4.2 W 19 30 10 16 1018.0 1017.1 0.0
21/11:00am 13.6 8.8 4.7 55 4.2 W 19 33 10 18 1017.9 1017.0 0.0
21/10:30am 13.1 8.7 5.0 58 3.8 W 17 30 9 16 1017.9 1017.0 0.0

Other Formats:

Comma delimited format used in spreadsheet applications
http://www.bom.gov.au/fwo/IDT60801/IDT60801.94960.axf

JavaScript Object Notation format (JSON) in row-major order
http://www.bom.gov.au/fwo/IDT60801/IDT60801.94960.json